Terminal Aerodrome Forecast
Issued by NWS

Home | Current Version | Previous Version | Text Only | Print | Product List | Glossary On
Versions: 1 2 3 4 5 6 7 8 9 10 11 12 13 14
000
FTUS46 KMTR 181700
TAFOAK
TAF
KOAK 181737Z 1818/1924 21008KT P6SM VCSH BKN035 BKN050
      TEMPO 1818/1821 -SHRA
     FM182100 24010KT P6SM VCSH BKN035 BKN050
     FM182300 27010KT P6SM SCT035 BKN050
     FM190700 29005KT P6SM BKN015 BKN040
     FM191200 VRB03KT P6SM OVC015
     FM192000 28008KT P6SM SCT030=

USA.gov is the U.S. government's official web portal to all federal, state and local government web resources and services.